Wetterdaten vom Freitag, 10. April 2020

Temperatur Taupunkt Windchill Luftfeuchte Luftdruck Solarstrahlung Regen ET
(Verdunstung von Wasser)
Wind
Max 11.6 °C
00:45
5.6 °C
03:30
11.5 °C
00:45
73%
03:15
1019.6 hPa
00:35
0 W/m²
00:00
3 km/h
01:45 km/h
Durchschnitt 10.7 °C 5 °C 10.7 °C 68% 1019.5 hPa 0 W/m² 0 mm 0.076 mm 0.3 km/h
Min 10 °C
02:50
4.5 °C
00:00
10 °C
02:50
63%
00:00
1019.4 hPa
00:00
0 km/h (Böe)
00:00 km/h
Zeit
00:00 11.3 °C 4.5 °C 11.3 °C 63% 1019.4 hPa 0 W/m² 0.0 mm 0.000 mm 0.0 km/h
00:05 11.3 °C 4.7 °C 11.3 °C 64% 1019.4 hPa 0 W/m² 0.0 mm 0.000 mm 0.0 km/h
00:10 11.2 °C 4.9 °C 11.2 °C 65% 1019.4 hPa 0 W/m² 0.0 mm 0.000 mm 0.0 km/h
00:15 11.3 °C 5.0 °C 11.3 °C 65% 1019.4 hPa 0 W/m² 0.0 mm 0.000 mm 0.4 km/h
00:20 11.3 °C 4.7 °C 11.3 °C 64% 1019.4 hPa 0 W/m² 0.0 mm 0.000 mm 0.0 km/h
00:25 11.3 °C 5.0 °C 11.3 °C 65% 1019.4 hPa 0 W/m² 0.0 mm 0.000 mm 0.2 km/h
00:30 11.4 °C 4.8 °C 11.4 °C 64% 1019.5 hPa 0 W/m² 0.0 mm 0.000 mm 0.3 km/h
00:35 11.3 °C 4.7 °C 11.3 °C 64% 1019.6 hPa 0 W/m² 0.0 mm 0.000 mm 0.7 km/h
00:40 11.4 °C 5.3 °C 11.4 °C 66% 1019.4 hPa 0 W/m² 0.0 mm 0.000 mm 1.3 km/h
00:45 11.5 °C 5.2 °C 11.5 °C 65% 1019.5 hPa 0 W/m² 0.0 mm 0.000 mm 0.1 km/h
00:50 11.5 °C 5.2 °C 11.5 °C 65% 1019.6 hPa 0 W/m² 0.0 mm 0.000 mm 0.7 km/h
00:55 11.5 °C 5.2 °C 11.5 °C 65% 1019.5 hPa 0 W/m² 0.0 mm 0.000 mm 0.0 km/h
01:00 11.4 °C 4.8 °C 11.4 °C 64% 1019.6 hPa 0 W/m² 0.0 mm 0.025 mm 0.0 km/h
01:05 11.3 °C 4.7 °C 11.3 °C 64% 1019.6 hPa 0 W/m² 0.0 mm 0.000 mm 0.0 km/h
01:10 11.3 °C 4.7 °C 11.3 °C 64% 1019.6 hPa 0 W/m² 0.0 mm 0.000 mm 0.0 km/h
01:15 11.3 °C 5.0 °C 11.3 °C 65% 1019.6 hPa 0 W/m² 0.0 mm 0.000 mm 0.0 km/h
01:20 11.2 °C 4.6 °C 11.2 °C 64% 1019.6 hPa 0 W/m² 0.0 mm 0.000 mm 0.0 km/h
01:25 11.1 °C 4.8 °C 11.1 °C 65% 1019.5 hPa 0 W/m² 0.0 mm 0.000 mm 0.0 km/h
01:30 10.9 °C 4.6 °C 10.9 °C 65% 1019.6 hPa 0 W/m² 0.0 mm 0.000 mm 1.4 km/h
01:35 10.9 °C 5.0 °C 10.9 °C 67% 1019.6 hPa 0 W/m² 0.0 mm 0.000 mm 2.1 km/h
01:40 10.8 °C 4.9 °C 10.8 °C 67% 1019.6 hPa 0 W/m² 0.0 mm 0.000 mm 0.0 km/h
01:45 10.7 °C 4.6 °C 10.7 °C 66% 1019.6 hPa 0 W/m² 0.0 mm 0.000 mm 3.0 km/h
01:50 10.6 °C 4.9 °C 10.6 °C 68% 1019.6 hPa 0 W/m² 0.0 mm 0.000 mm 1.0 km/h
01:55 10.6 °C 5.2 °C 10.6 °C 69% 1019.6 hPa 0 W/m² 0.0 mm 0.000 mm 0.0 km/h
02:00 10.4 °C 5.0 °C 10.4 °C 69% 1019.6 hPa 0 W/m² 0.0 mm 0.026 mm 0.0 km/h
02:05 10.4 °C 4.5 °C 10.4 °C 67% 1019.6 hPa 0 W/m² 0.0 mm 0.000 mm 0.0 km/h
02:10 10.4 °C 5.0 °C 10.4 °C 69% 1019.5 hPa 0 W/m² 0.0 mm 0.000 mm 0.0 km/h
02:15 10.4 °C 5.2 °C 10.4 °C 70% 1019.6 hPa 0 W/m² 0.0 mm 0.000 mm 0.0 km/h
02:20 10.3 °C 4.9 °C 10.3 °C 69% 1019.6 hPa 0 W/m² 0.0 mm 0.000 mm 0.0 km/h
02:25 10.3 °C 5.1 °C 10.3 °C 70% 1019.6 hPa 0 W/m² 0.0 mm 0.000 mm 0.0 km/h
02:30 10.3 °C 4.9 °C 10.3 °C 69% 1019.5 hPa 0 W/m² 0.0 mm 0.000 mm 0.0 km/h
02:35 10.2 °C 5.0 °C 10.2 °C 70% 1019.5 hPa 0 W/m² 0.0 mm 0.000 mm 0.0 km/h
02:40 10.1 °C 4.9 °C 10.1 °C 70% 1019.5 hPa 0 W/m² 0.0 mm 0.000 mm 0.0 km/h
02:45 10.1 °C 4.9 °C 10.1 °C 70% 1019.5 hPa 0 W/m² 0.0 mm 0.000 mm 0.0 km/h
02:50 10.0 °C 5.0 °C 10.0 °C 71% 1019.6 hPa 0 W/m² 0.0 mm 0.000 mm 0.0 km/h
02:55 10.0 °C 5.0 °C 10.0 °C 71% 1019.6 hPa 0 W/m² 0.0 mm 0.000 mm 0.0 km/h
03:00 10.0 °C 5.2 °C 10.0 °C 72% 1019.4 hPa 0 W/m² 0.0 mm 0.025 mm 0.0 km/h
03:05 10.1 °C 5.3 °C 10.1 °C 72% 1019.5 hPa 0 W/m² 0.0 mm 0.000 mm 0.0 km/h
03:10 10.1 °C 5.1 °C 10.1 °C 71% 1019.5 hPa 0 W/m² 0.0 mm 0.000 mm 0.0 km/h
03:15 10.1 °C 5.5 °C 10.1 °C 73% 1019.5 hPa 0 W/m² 0.0 mm 0.000 mm 0.0 km/h
03:20 10.1 °C 5.5 °C 10.1 °C 73% 1019.5 hPa 0 W/m² 0.0 mm 0.000 mm 0.0 km/h
03:25 10.1 °C 5.3 °C 10.1 °C 72% 1019.5 hPa 0 W/m² 0.0 mm 0.000 mm 0.0 km/h
03:30 10.2 °C 5.6 °C 10.2 °C 73% 1019.6 hPa 0 W/m² 0.0 mm 0.000 mm 0.0 km/h